Schreiber, Canada
Current Conditions -  °F | °C
As of 5:00 PM on Sunday 21 Dec 2014 (Local Time) from CYSP Reporting Station
Snow Showers Snow Showers  
Wind Chill: 23°   Ceiling: 600
Heat Index: 32°   Visibility: 4mi
Dew Point: 30°   Wind: 12mph
Humidity: 93%   Direction: 180°S
Pressure: 29.97"   Gusts: 26mph
Location:  48.8°N, 87.27°W
Report Text: CYSP 212200Z 18010G23KT 4SM -SHSN BKN006 OVC011 00/M01 A2997 RMK SC5SC3 CVCTV CLD EMBD CIG RAG LAST OBS/NEXT 221300UTC VIS VRB 2-6 SLP165
Loading
Personal Weather Stations






























Interactive Weather Map New forecast layout! Learn more

10-Day Weather Forecast

Advertisements
Track Severe Weather on mobile